createdAt,value
2023-04-18T00:01:55.025Z,8.81
2023-04-18T00:04:22.927Z,8.73
2023-04-18T00:06:52.192Z,8.69
2023-04-18T00:09:20.017Z,8.67
2023-04-18T00:11:48.399Z,8.62
2023-04-18T00:14:16.494Z,8.55
2023-04-18T00:16:46.249Z,8.52
2023-04-18T00:19:14.270Z,8.52
2023-04-18T00:21:44.589Z,8.46
2023-04-18T00:24:12.701Z,8.39
2023-04-18T00:26:40.603Z,8.36
2023-04-18T00:29:08.449Z,8.30
2023-04-18T00:31:36.599Z,8.26
2023-04-18T00:34:05.767Z,8.21
2023-04-18T00:36:33.578Z,8.17
2023-04-18T00:39:01.332Z,8.10
2023-04-18T00:41:29.558Z,8.00
2023-04-18T00:43:57.372Z,7.95
2023-04-18T00:46:25.441Z,7.94
2023-04-18T00:48:53.436Z,7.89
2023-04-18T00:51:22.622Z,7.87
2023-04-18T00:53:51.298Z,7.85
2023-04-18T00:56:19.167Z,7.76
2023-04-18T00:58:46.983Z,7.71
2023-04-18T01:01:14.750Z,7.76
2023-04-18T01:03:43.954Z,7.77
2023-04-18T01:06:11.909Z,7.76
2023-04-18T01:08:41.828Z,7.74
2023-04-18T01:11:09.616Z,7.66
2023-04-18T01:13:37.378Z,7.62
2023-04-18T01:16:05.724Z,7.64
2023-04-18T01:18:35.096Z,7.56
2023-04-18T01:21:03.311Z,7.50
2023-04-18T01:23:31.466Z,7.47
2023-04-18T01:26:00.631Z,7.39
2023-04-18T01:28:28.516Z,7.33
2023-04-18T01:30:57.092Z,7.28
2023-04-18T01:33:24.885Z,7.26
2023-04-18T01:35:52.712Z,7.20
2023-04-18T01:38:20.500Z,7.17
2023-04-18T01:40:48.340Z,7.14
2023-04-18T01:43:17.568Z,7.13
2023-04-18T01:45:45.387Z,7.06
2023-04-18T01:48:13.237Z,7.04
2023-04-18T01:50:42.989Z,7.03
2023-04-18T01:53:11.806Z,7.02
2023-04-18T01:55:39.586Z,6.99
2023-04-18T01:58:07.761Z,7.01
2023-04-18T02:00:38.649Z,7.02
2023-04-18T02:03:06.711Z,6.96
2023-04-18T02:05:34.628Z,6.96
2023-04-18T02:08:02.399Z,6.92
2023-04-18T02:10:30.158Z,6.92
2023-04-18T02:12:57.932Z,6.89
2023-04-18T02:15:26.329Z,6.89
2023-04-18T02:17:55.634Z,6.86
2023-04-18T02:20:26.176Z,6.83
2023-04-18T02:22:54.630Z,6.83
2023-04-18T02:25:23.603Z,6.81
2023-04-18T02:27:51.784Z,6.80
2023-04-18T02:30:19.692Z,6.79
2023-04-18T02:32:47.475Z,6.76
2023-04-18T02:35:16.999Z,6.75
2023-04-18T02:37:44.797Z,6.72
2023-04-18T02:40:13.956Z,6.66
2023-04-18T02:42:41.776Z,6.63
2023-04-18T02:45:10.358Z,6.64
2023-04-18T02:47:51.190Z,6.61
2023-04-18T02:50:23.390Z,6.58
2023-04-18T02:52:51.726Z,6.60
2023-04-18T02:55:22.022Z,6.55
2023-04-18T02:57:49.901Z,6.49
2023-04-18T03:00:36.474Z,6.43
2023-04-18T03:03:27.921Z,6.34
2023-04-18T03:06:10.547Z,6.34
2023-04-18T03:08:38.872Z,6.27
2023-04-18T03:11:06.691Z,6.24
2023-04-18T03:13:36.237Z,6.24
2023-04-18T03:16:04.622Z,6.19
2023-04-18T03:18:33.114Z,6.16
2023-04-18T03:21:01.022Z,6.15
2023-04-18T03:23:31.908Z,6.13
2023-04-18T03:26:02.316Z,6.04
2023-04-18T03:28:32.535Z,6.04
2023-04-18T03:31:00.969Z,6.06
2023-04-18T03:33:29.782Z,6.06
2023-04-18T03:36:07.459Z,6.01
2023-04-18T03:38:37.869Z,5.98
2023-04-18T03:41:05.870Z,5.97
2023-04-18T03:43:36.114Z,5.91
2023-04-18T03:46:04.135Z,5.83
2023-04-18T03:48:35.756Z,5.79
2023-04-18T03:51:07.097Z,5.77
2023-04-18T03:53:36.973Z,5.70
2023-04-18T03:56:04.850Z,5.71
2023-04-18T03:58:48.297Z,5.63
2023-04-18T04:01:16.515Z,5.63
2023-04-18T04:03:44.479Z,5.63
2023-04-18T04:06:12.703Z,5.63
2023-04-18T04:08:42.040Z,5.62
2023-04-18T04:11:09.855Z,5.57
2023-04-18T04:13:37.656Z,5.60
2023-04-18T04:16:06.857Z,5.61
2023-04-18T04:18:34.713Z,5.61
2023-04-18T04:21:04.551Z,5.64
2023-04-18T04:23:42.867Z,5.64
2023-04-18T04:26:15.778Z,5.61
2023-04-18T04:28:51.658Z,5.61
2023-04-18T04:31:23.503Z,5.68
2023-04-18T04:33:51.772Z,5.73
2023-04-18T04:36:23.079Z,5.75
2023-04-18T04:38:54.217Z,5.75
2023-04-18T04:41:31.593Z,5.77
2023-04-18T04:44:01.847Z,5.80
2023-04-18T04:46:33.787Z,5.82
2023-04-18T04:49:04.769Z,5.82
2023-04-18T04:51:32.688Z,5.82
2023-04-18T04:54:02.234Z,5.82
2023-04-18T04:56:30.088Z,5.84
2023-04-18T04:58:57.884Z,5.85
2023-04-18T05:01:32.212Z,5.86
2023-04-18T05:04:00.397Z,5.90
2023-04-18T05:06:28.586Z,5.93
2023-04-18T05:08:57.563Z,5.95
2023-04-18T05:11:26.731Z,5.96
2023-04-18T05:13:54.567Z,5.97
2023-04-18T05:16:22.534Z,5.99
2023-04-18T05:18:50.362Z,5.99
2023-04-18T05:21:18.126Z,6.00
2023-04-18T05:23:46.353Z,6.00
2023-04-18T05:26:14.213Z,6.01
2023-04-18T05:28:43.581Z,6.04
2023-04-18T05:31:11.462Z,6.07
2023-04-18T05:33:39.272Z,6.09
2023-04-18T05:36:07.733Z,6.08
2023-04-18T05:38:35.658Z,6.10
2023-04-18T05:41:03.449Z,6.13
2023-04-18T05:43:31.230Z,6.15
2023-04-18T05:46:00.389Z,6.16
2023-04-18T05:48:28.524Z,6.18
2023-04-18T05:50:56.397Z,6.21
2023-04-18T05:53:24.229Z,6.25
2023-04-18T05:55:52.046Z,6.27
2023-04-18T05:58:19.789Z,6.32
2023-04-18T06:00:48.238Z,6.34
2023-04-18T06:03:17.639Z,6.36
2023-04-18T06:05:45.888Z,6.39
2023-04-18T06:08:13.892Z,6.43
2023-04-18T06:10:41.668Z,6.43
2023-04-18T06:13:09.422Z,6.47
2023-04-18T06:15:37.240Z,6.53
2023-04-18T06:18:05.303Z,6.56
2023-04-18T06:20:34.433Z,6.61
2023-04-18T06:23:02.204Z,6.64
2023-04-18T06:25:30.287Z,6.69
2023-04-18T06:27:58.116Z,6.78
2023-04-18T06:30:25.917Z,6.86
2023-04-18T06:32:53.715Z,6.92
2023-04-18T06:35:21.565Z,6.98
2023-04-18T06:37:51.030Z,7.05
2023-04-18T06:40:19.002Z,7.13
2023-04-18T06:42:47.103Z,7.24
2023-04-18T06:45:19.435Z,7.35
2023-04-18T06:47:47.898Z,7.43
2023-04-18T06:50:16.498Z,7.48
2023-04-18T06:52:45.621Z,7.51
2023-04-18T06:55:15.291Z,7.54
2023-04-18T06:57:43.782Z,7.58
2023-04-18T07:00:12.472Z,7.59
2023-04-18T07:02:41.124Z,7.63
2023-04-18T07:05:09.907Z,7.69
2023-04-18T07:07:37.810Z,7.74
2023-04-18T07:10:06.860Z,7.78
2023-04-18T07:12:36.031Z,7.83
2023-04-18T07:15:04.720Z,7.83
2023-04-18T07:17:32.749Z,7.87
2023-04-18T07:20:00.795Z,7.90
2023-04-18T07:22:28.558Z,7.96
2023-04-18T07:24:56.357Z,8.00
2023-04-18T07:27:24.142Z,8.00
2023-04-18T07:29:53.271Z,8.05
2023-04-18T07:32:21.145Z,8.14
2023-04-18T07:34:49.074Z,8.18
2023-04-18T07:37:18.960Z,8.23
2023-04-18T07:39:46.894Z,8.28
2023-04-18T07:42:14.876Z,8.31
2023-04-18T07:44:42.762Z,8.41
2023-04-18T07:47:14.206Z,8.53
2023-04-18T07:49:42.044Z,8.74
2023-04-18T07:52:09.840Z,8.99
2023-04-18T07:54:37.704Z,9.17
2023-04-18T07:57:05.515Z,9.24
2023-04-18T07:59:33.283Z,9.36
2023-04-18T08:02:01.151Z,9.48
2023-04-18T08:04:30.769Z,9.65
2023-04-18T08:06:58.639Z,10.06
2023-04-18T08:09:26.469Z,10.23
2023-04-18T08:11:55.219Z,10.34
2023-04-18T08:14:23.035Z,10.75
2023-04-18T08:16:50.828Z,10.91
2023-04-18T08:19:18.640Z,10.99
2023-04-18T08:21:47.786Z,11.09
2023-04-18T08:24:15.539Z,11.62
2023-04-18T08:26:43.313Z,11.66
2023-04-18T08:29:11.718Z,11.77
2023-04-18T08:31:40.086Z,11.90
2023-04-18T08:34:07.908Z,11.87
2023-04-18T08:36:36.197Z,11.60
2023-04-18T08:39:06.285Z,11.37
2023-04-18T08:41:37.878Z,11.30
2023-04-18T08:44:05.917Z,11.37
2023-04-18T08:46:35.836Z,11.45
2023-04-18T08:49:04.903Z,11.59
2023-04-18T08:51:33.852Z,11.50
2023-04-18T08:54:04.465Z,11.59
2023-04-18T08:56:33.648Z,11.88
2023-04-18T08:59:01.376Z,11.89
2023-04-18T09:01:52.154Z,11.84
2023-04-18T09:04:39.765Z,11.79
2023-04-18T09:07:10.120Z,11.74
2023-04-18T09:09:42.301Z,12.00
2023-04-18T09:12:14.315Z,12.17
2023-04-18T09:14:46.857Z,12.07
2023-04-18T09:17:31.582Z,12.14
2023-04-18T09:20:00.184Z,12.45
2023-04-18T09:22:46.179Z,13.15
2023-04-18T09:25:25.994Z,13.72
2023-04-18T09:27:55.253Z,14.20
2023-04-18T09:30:40.104Z,14.55
2023-04-18T09:33:10.218Z,14.45
2023-04-18T09:35:38.548Z,14.53
2023-04-18T09:38:08.359Z,14.87
2023-04-18T09:40:36.524Z,14.90
2023-04-18T09:43:19.302Z,14.83
2023-04-18T09:45:49.220Z,14.78
2023-04-18T09:48:17.105Z,14.61
2023-04-18T09:50:47.118Z,14.56
2023-04-18T09:53:20.771Z,14.30
2023-04-18T09:55:52.363Z,14.09
2023-04-18T09:58:23.459Z,14.02
2023-04-18T10:00:54.170Z,14.00
2023-04-18T10:03:28.688Z,13.96
2023-04-18T10:05:57.889Z,14.04
2023-04-18T10:08:27.341Z,13.87
2023-04-18T10:10:55.922Z,13.76
2023-04-18T10:13:27.057Z,13.61
2023-04-18T10:15:55.819Z,13.61
2023-04-18T10:18:24.874Z,13.58
2023-04-18T10:21:02.197Z,13.43
2023-04-18T10:23:38.136Z,13.46
2023-04-18T10:26:06.729Z,13.52
2023-04-18T10:28:57.856Z,13.93
2023-04-18T10:31:26.963Z,14.18
2023-04-18T10:34:04.653Z,14.28
2023-04-18T10:36:34.132Z,14.24
2023-04-18T10:39:04.245Z,14.11
2023-04-18T10:41:33.455Z,13.98
2023-04-18T10:44:23.740Z,14.09
2023-04-18T10:47:21.691Z,14.44
2023-04-18T10:50:06.100Z,14.65
2023-04-18T10:52:34.411Z,14.94
2023-04-18T10:55:14.474Z,15.12
2023-04-18T10:57:43.665Z,14.90
2023-04-18T11:00:15.261Z,14.98
2023-04-18T11:02:50.094Z,15.18
2023-04-18T11:05:23.913Z,15.11
2023-04-18T11:07:53.025Z,14.87
2023-04-18T11:10:22.700Z,14.74
2023-04-18T11:12:51.015Z,14.81
2023-04-18T11:15:22.502Z,14.78
2023-04-18T11:17:58.358Z,14.59
2023-04-18T11:20:26.593Z,14.52
2023-04-18T11:22:56.186Z,14.42
2023-04-18T11:25:26.951Z,14.34
2023-04-18T11:27:59.212Z,14.42
2023-04-18T11:30:31.324Z,14.31
2023-04-18T11:32:59.275Z,14.33
2023-04-18T11:35:27.430Z,14.19
2023-04-18T11:37:55.522Z,14.18
2023-04-18T11:40:23.410Z,14.14
2023-04-18T11:42:51.147Z,14.09
2023-04-18T11:45:18.906Z,14.13
2023-04-18T11:47:48.193Z,14.23
2023-04-18T11:50:16.145Z,14.49
2023-04-18T11:52:43.902Z,14.64
2023-04-18T11:55:14.073Z,14.66
2023-04-18T11:57:42.587Z,14.51
2023-04-18T12:00:12.360Z,14.42
2023-04-18T12:02:43.102Z,14.39
2023-04-18T12:05:14.975Z,14.48
2023-04-18T12:07:45.792Z,14.55
2023-04-18T12:10:25.720Z,14.49
2023-04-18T12:12:54.435Z,14.49
2023-04-18T12:15:25.256Z,14.24
2023-04-18T12:17:53.251Z,14.22
2023-04-18T12:20:25.141Z,14.14
2023-04-18T12:22:55.087Z,14.17
2023-04-18T12:25:27.031Z,14.25
2023-04-18T12:27:57.886Z,14.28
2023-04-18T12:30:27.423Z,14.24
2023-04-18T12:32:56.836Z,14.31
2023-04-18T12:35:26.797Z,14.27
2023-04-18T12:37:57.107Z,14.34
2023-04-18T12:40:26.270Z,14.33
2023-04-18T12:42:55.331Z,14.43
2023-04-18T12:45:24.280Z,14.47
2023-04-18T12:47:53.251Z,14.29
2023-04-18T12:50:22.783Z,14.27
2023-04-18T12:52:52.866Z,14.25
2023-04-18T12:55:21.124Z,14.31
2023-04-18T12:57:48.998Z,14.23
2023-04-18T13:00:16.895Z,14.19
2023-04-18T13:02:45.983Z,14.18
2023-04-18T13:05:16.566Z,14.14
2023-04-18T13:07:44.821Z,14.12
2023-04-18T13:10:15.531Z,14.03
2023-04-18T13:12:43.318Z,14.06
2023-04-18T13:15:11.917Z,13.93
2023-04-18T13:17:40.536Z,13.94
2023-04-18T13:20:10.607Z,13.90
2023-04-18T13:22:39.068Z,13.82
2023-04-18T13:25:08.310Z,13.76
2023-04-18T13:27:39.557Z,13.80
2023-04-18T13:30:11.482Z,13.83
2023-04-18T13:32:40.469Z,13.86
2023-04-18T13:35:10.629Z,13.87
2023-04-18T13:37:38.959Z,13.82
2023-04-18T13:40:08.050Z,13.81
2023-04-18T13:42:38.566Z,13.86
2023-04-18T13:45:07.304Z,14.04
2023-04-18T13:47:35.863Z,14.29
2023-04-18T13:50:03.963Z,14.39
2023-04-18T13:52:31.763Z,14.36
2023-04-18T13:54:59.562Z,14.42
2023-04-18T13:57:28.391Z,14.55
2023-04-18T13:59:57.472Z,14.78
2023-04-18T14:02:25.394Z,15.25
2023-04-18T14:04:54.856Z,15.84
2023-04-18T14:07:22.882Z,16.02
2023-04-18T14:09:52.024Z,15.81
2023-04-18T14:12:21.593Z,15.49
2023-04-18T14:14:49.374Z,15.47
2023-04-18T14:17:18.521Z,15.54
2023-04-18T14:19:46.441Z,15.88
2023-04-18T14:22:14.262Z,15.83
2023-04-18T14:24:42.070Z,15.91
2023-04-18T14:27:09.828Z,15.89
2023-04-18T14:29:37.580Z,15.91
2023-04-18T14:32:06.949Z,15.85
2023-04-18T14:34:37.385Z,15.65
2023-04-18T14:37:06.542Z,15.58
2023-04-18T14:39:34.311Z,15.83
2023-04-18T14:42:02.210Z,16.00
2023-04-18T14:44:30.706Z,15.87
2023-04-18T14:46:58.561Z,15.80
2023-04-18T14:49:26.386Z,16.21
2023-04-18T14:51:55.922Z,16.57
2023-04-18T14:54:23.720Z,16.72
2023-04-18T14:56:51.492Z,16.97
2023-04-18T14:59:19.410Z,17.05
2023-04-18T15:01:47.569Z,16.93
2023-04-18T15:04:15.913Z,16.91
2023-04-18T15:06:43.990Z,17.15
2023-04-18T15:09:17.418Z,17.26
2023-04-18T15:11:45.184Z,17.30
2023-04-18T15:14:13.150Z,17.57
2023-04-18T15:16:41.155Z,17.78
2023-04-18T15:19:09.030Z,17.73
2023-04-18T15:21:36.824Z,17.78
2023-04-18T15:24:04.710Z,17.37
2023-04-18T15:26:33.893Z,17.05
2023-04-18T15:29:02.479Z,16.94
2023-04-18T15:31:30.594Z,16.78
2023-04-18T15:33:58.381Z,16.95
2023-04-18T15:36:27.681Z,17.09
2023-04-18T15:38:55.492Z,16.92
2023-04-18T15:41:23.280Z,16.84
2023-04-18T15:43:53.469Z,16.78
2023-04-18T15:46:21.270Z,16.77
2023-04-18T15:48:49.068Z,16.61
2023-04-18T15:51:17.239Z,16.58
2023-04-18T15:53:44.993Z,16.35
2023-04-18T15:56:13.760Z,16.32
2023-04-18T15:58:41.803Z,16.13
2023-04-18T16:01:13.079Z,16.04
2023-04-18T16:03:40.958Z,16.06
2023-04-18T16:06:09.942Z,16.09
2023-04-18T16:08:38.181Z,15.88
2023-04-18T16:11:06.215Z,15.92
2023-04-18T16:13:38.291Z,15.98
2023-04-18T16:16:06.966Z,15.96
2023-04-18T16:18:36.245Z,15.83
2023-04-18T16:21:04.085Z,15.94
2023-04-18T16:23:32.841Z,15.95
2023-04-18T16:26:00.627Z,15.92
2023-04-18T16:28:29.940Z,15.81
2023-04-18T16:30:57.896Z,15.55
2023-04-18T16:33:26.175Z,15.44
2023-04-18T16:35:58.481Z,15.45
2023-04-18T16:38:27.328Z,15.39
2023-04-18T16:40:57.022Z,15.27
2023-04-18T16:43:26.787Z,15.25
2023-04-18T16:45:56.371Z,15.17
2023-04-18T16:48:24.720Z,15.18
2023-04-18T16:50:52.615Z,15.07
2023-04-18T16:53:22.327Z,14.98
2023-04-18T16:55:50.395Z,14.92
2023-04-18T16:58:18.358Z,14.97
2023-04-18T17:00:46.303Z,14.95
2023-04-18T17:03:14.268Z,14.94
2023-04-18T17:05:42.207Z,14.86
2023-04-18T17:08:09.987Z,14.85
2023-04-18T17:10:39.140Z,14.77
2023-04-18T17:13:06.897Z,14.78
2023-04-18T17:15:34.631Z,14.77
2023-04-18T17:18:02.581Z,14.72
2023-04-18T17:20:30.427Z,14.59
2023-04-18T17:22:58.315Z,14.60
2023-04-18T17:25:26.118Z,14.57
2023-04-18T17:27:55.233Z,14.54
2023-04-18T17:30:23.201Z,14.55
2023-04-18T17:32:51.083Z,14.52
2023-04-18T17:35:18.962Z,14.48
2023-04-18T17:37:47.507Z,14.46
2023-04-18T17:40:15.643Z,14.45
2023-04-18T17:42:43.472Z,14.50
2023-04-18T17:45:12.660Z,14.58
2023-04-18T17:47:41.109Z,14.60
2023-04-18T17:50:09.749Z,14.44
2023-04-18T17:52:37.616Z,14.40
2023-04-18T17:55:06.298Z,14.36
2023-04-18T17:57:35.361Z,14.31
2023-04-18T18:00:07.282Z,14.31
2023-04-18T18:02:42.355Z,14.31
2023-04-18T18:05:12.985Z,14.23
2023-04-18T18:07:42.965Z,14.19
2023-04-18T18:10:11.669Z,14.08
2023-04-18T18:12:39.998Z,14.07
2023-04-18T18:15:09.588Z,14.02
2023-04-18T18:17:37.515Z,13.98
2023-04-18T18:20:09.667Z,13.93
2023-04-18T18:22:37.475Z,13.92
2023-04-18T18:25:06.132Z,13.87
2023-04-18T18:27:33.953Z,13.81
2023-04-18T18:30:01.707Z,13.73
2023-04-18T18:32:29.562Z,13.73
2023-04-18T18:34:57.361Z,13.66
2023-04-18T18:37:26.729Z,13.63
2023-04-18T18:39:56.190Z,13.62
2023-04-18T18:42:24.157Z,13.62
2023-04-18T18:44:51.973Z,13.61
2023-04-18T18:47:19.826Z,13.58
2023-04-18T18:49:48.685Z,13.47
2023-04-18T18:52:16.899Z,13.30
2023-04-18T18:54:46.063Z,13.35
2023-04-18T18:57:13.846Z,13.35
2023-04-18T18:59:42.607Z,13.27
2023-04-18T19:02:10.494Z,13.24
2023-04-18T19:04:38.738Z,13.17
2023-04-18T19:07:07.249Z,13.09
2023-04-18T19:09:36.806Z,13.06
2023-04-18T19:12:06.899Z,13.00
2023-04-18T19:14:34.696Z,12.95
2023-04-18T19:17:03.022Z,12.98
2023-04-18T19:19:30.920Z,12.89
2023-04-18T19:22:00.444Z,12.76
2023-04-18T19:24:28.605Z,12.66
2023-04-18T19:26:56.788Z,12.56
2023-04-18T19:29:30.662Z,12.41
2023-04-18T19:32:00.412Z,12.34
2023-04-18T19:34:28.288Z,12.29
2023-04-18T19:36:56.073Z,12.27
2023-04-18T19:39:23.858Z,12.21
2023-04-18T19:41:51.661Z,12.10
2023-04-18T19:44:19.457Z,12.03
2023-04-18T19:46:48.586Z,12.01
2023-04-18T19:49:16.578Z,12.03
2023-04-18T19:51:44.507Z,11.97
2023-04-18T19:54:12.270Z,11.90
2023-04-18T19:56:40.063Z,11.90
2023-04-18T19:59:10.925Z,11.86
2023-04-18T20:01:39.216Z,11.78
2023-04-18T20:04:08.651Z,11.68
2023-04-18T20:06:37.627Z,11.63
2023-04-18T20:09:05.790Z,11.56
2023-04-18T20:11:33.590Z,11.49
2023-04-18T20:14:01.402Z,11.45
2023-04-18T20:16:29.258Z,11.40
2023-04-18T20:18:57.301Z,11.39
2023-04-18T20:21:27.256Z,11.33
2023-04-18T20:23:56.546Z,11.30
2023-04-18T20:26:24.347Z,11.25
2023-04-18T20:28:52.152Z,11.22
2023-04-18T20:31:19.974Z,11.19
2023-04-18T20:33:47.746Z,11.18
2023-04-18T20:36:17.570Z,11.10
2023-04-18T20:38:46.777Z,11.05
2023-04-18T20:41:14.974Z,10.96
2023-04-18T20:43:43.508Z,10.92
2023-04-18T20:46:12.830Z,10.86
2023-04-18T20:48:40.757Z,10.81
2023-04-18T20:51:08.509Z,10.79
2023-04-18T20:53:36.290Z,10.77
2023-04-18T20:56:05.825Z,10.75
2023-04-18T20:58:33.591Z,10.69
2023-04-18T21:01:01.409Z,10.61
2023-04-18T21:03:29.283Z,10.60
2023-04-18T21:05:57.158Z,10.56
2023-04-18T21:08:24.944Z,10.53
2023-04-18T21:10:53.230Z,10.46
2023-04-18T21:13:22.368Z,10.44
2023-04-18T21:15:51.866Z,10.41
2023-04-18T21:18:19.784Z,10.40
2023-04-18T21:20:47.561Z,10.36
2023-04-18T21:23:15.374Z,10.33
2023-04-18T21:25:43.134Z,10.32
2023-04-18T21:28:10.992Z,10.30
2023-04-18T21:30:40.220Z,10.29
2023-04-18T21:33:07.984Z,10.26
2023-04-18T21:35:35.751Z,10.23
2023-04-18T21:38:03.567Z,10.21
2023-04-18T21:40:33.244Z,10.19
2023-04-18T21:43:01.038Z,10.08
2023-04-18T21:45:28.827Z,10.05
2023-04-18T21:47:58.016Z,10.05
2023-04-18T21:50:26.063Z,10.03
2023-04-18T21:52:53.808Z,9.99
2023-04-18T21:55:21.609Z,9.94
2023-04-18T21:57:49.364Z,9.89
2023-04-18T22:00:17.854Z,9.87
2023-04-18T22:02:46.159Z,9.82
2023-04-18T22:05:16.117Z,9.77
2023-04-18T22:07:56.881Z,9.75
2023-04-18T22:10:26.173Z,9.72
2023-04-18T22:12:54.475Z,9.70
2023-04-18T22:15:22.470Z,9.66
2023-04-18T22:17:50.449Z,9.65
2023-04-18T22:20:19.690Z,9.66
2023-04-18T22:22:47.417Z,9.64
2023-04-18T22:25:15.270Z,9.60
2023-04-18T22:27:43.607Z,9.55
2023-04-18T22:30:12.687Z,9.56
2023-04-18T22:32:41.699Z,9.52
2023-04-18T22:35:10.537Z,9.52
2023-04-18T22:37:39.662Z,9.52
2023-04-18T22:40:08.946Z,9.49
2023-04-18T22:42:38.078Z,9.44
2023-04-18T22:45:07.797Z,9.40
2023-04-18T22:47:35.586Z,9.39
2023-04-18T22:50:03.535Z,9.38
2023-04-18T22:52:31.471Z,9.36
2023-04-18T22:55:00.626Z,9.36
2023-04-18T22:57:28.415Z,9.36
2023-04-18T22:59:56.184Z,9.30
2023-04-18T23:02:24.112Z,9.29
2023-04-18T23:04:53.354Z,9.26
2023-04-18T23:07:21.196Z,9.20
2023-04-18T23:09:48.939Z,9.19
2023-04-18T23:12:18.101Z,9.15
2023-04-18T23:14:45.886Z,9.15
2023-04-18T23:17:13.644Z,9.08
2023-04-18T23:19:41.507Z,9.09
2023-04-18T23:22:09.286Z,9.08
2023-04-18T23:24:37.054Z,9.06
2023-04-18T23:27:04.878Z,9.03
2023-04-18T23:29:37.674Z,9.03
2023-04-18T23:32:06.313Z,9.04
2023-04-18T23:34:34.138Z,9.04
2023-04-18T23:37:01.911Z,9.03
2023-04-18T23:39:29.722Z,9.05
2023-04-18T23:41:57.515Z,9.06
2023-04-18T23:44:25.370Z,9.06
2023-04-18T23:46:54.508Z,9.05
2023-04-18T23:49:22.314Z,9.05
2023-04-18T23:51:50.053Z,9.06
2023-04-18T23:54:17.824Z,9.04
2023-04-18T23:56:45.615Z,9.04
2023-04-18T23:59:13.380Z,9.05
